Time;durP1;ratioP1;P1;durP2;ratioP2;P2;SDS_P1;SDS_P2;PMS_P1;PMS_P2;Temp;Humidity;BMP_temperature;BMP_pressure;BME280_temperature;BME280_humidity;BME280_pressure;Samples;Min_cycle;Max_cycle;Signal;HPM_P1;HPM_P2
2022/09/12 00:01:47;;;;;;;2.50;2.30;;;;;;;14.79;100.00;100393.22;5018376;28;20453;-49
2022/09/12 00:04:14;;;;;;;2.30;2.07;;;;;;;14.69;100.00;100389.25;5023939;28;20456;-50
2022/09/12 00:06:41;;;;;;;12.33;3.70;;;;;;;14.74;100.00;100387.22;5018036;28;20514;-49
2022/09/12 00:09:10;;;;;;;2.83;2.67;;;;;;;14.87;100.00;100392.03;5024012;28;20452;-50
2022/09/12 00:11:39;;;;;;;2.17;1.70;;;;;;;14.73;100.00;100385.50;5024731;28;21043;-49
2022/09/12 00:14:07;;;;;;;2.40;2.23;;;;;;;14.75;100.00;100388.09;5020162;28;20452;-49
2022/09/12 00:16:35;;;;;;;1.73;1.63;;;;;;;14.65;100.00;100384.06;5018512;28;20464;-50
2022/09/12 00:19:04;;;;;;;2.93;2.73;;;;;;;14.58;100.00;100385.28;5021878;28;20543;-50
2022/09/12 00:21:34;;;;;;;6.00;3.73;;;;;;;14.62;100.00;100379.72;5020194;28;20472;-49
2022/09/12 00:24:00;;;;;;;3.07;2.87;;;;;;;14.62;100.00;100377.06;5022167;28;20452;-49
2022/09/12 00:26:27;;;;;;;4.13;3.10;;;;;;;14.57;100.00;100379.06;5017400;28;20456;-49
2022/09/12 00:28:54;;;;;;;2.70;2.60;;;;;;;14.59;100.00;100379.00;5022266;28;20521;-50
2022/09/12 00:31:23;;;;;;;2.83;2.63;;;;;;;14.58;100.00;100372.78;5017644;28;20475;-49
2022/09/12 00:33:51;;;;;;;3.33;2.80;;;;;;;14.50;100.00;100367.75;5019823;28;20821;-49
2022/09/12 00:36:23;;;;;;;2.30;1.73;;;;;;;14.48;100.00;100358.94;5028176;28;20452;-49
2022/09/12 00:38:50;;;;;;;3.17;2.47;;;;;;;14.32;100.00;100363.19;5018504;28;20508;-49
2022/09/12 00:41:22;;;;;;;4.20;2.57;;;;;;;14.37;100.00;100358.50;5024543;28;20476;-49
2022/09/12 00:43:55;;;;;;;9.67;2.90;;;;;;;14.44;100.00;100368.03;5024518;28;20462;-49
2022/09/12 00:46:31;;;;;;;2.80;2.60;;;;;;;14.44;100.00;100361.81;5005411;28;20459;-49
2022/09/12 00:49:02;;;;;;;2.20;1.93;;;;;;;14.49;100.00;100365.16;5017846;28;20941;-49
2022/09/12 00:51:35;;;;;;;4.10;3.80;;;;;;;14.35;100.00;100365.72;5020670;28;20480;-50
2022/09/12 00:54:07;;;;;;;2.40;2.30;;;;;;;14.29;100.00;100363.31;5024129;28;20457;-49
2022/09/12 00:56:35;;;;;;;2.30;2.20;;;;;;;14.15;100.00;100357.69;5022192;28;21048;-49
2022/09/12 00:59:09;;;;;;;5.83;4.37;;;;;;;14.06;100.00;100360.72;5017634;28;20451;-49
2022/09/12 01:01:38;;;;;;;2.43;2.23;;;;;;;14.12;100.00;100357.81;5017531;28;20472;-50
2022/09/12 01:04:04;;;;;;;4.60;2.43;;;;;;;14.25;100.00;100367.03;5004760;28;20459;-50
2022/09/12 01:06:37;;;;;;;2.80;2.50;;;;;;;14.21;100.00;100362.75;5017255;28;21028;-50
2022/09/12 01:09:04;;;;;;;2.43;2.23;;;;;;;14.15;100.00;100368.38;5006345;28;20502;-49
2022/09/12 01:11:34;;;;;;;4.20;3.80;;;;;;;14.08;100.00;100362.41;5016829;28;20476;-48
2022/09/12 01:14:01;;;;;;;2.37;2.27;;;;;;;14.15;100.00;100363.03;5022246;28;20476;-49
2022/09/12 01:16:28;;;;;;;2.47;2.27;;;;;;;14.11;100.00;100356.94;5023730;28;20568;-48
2022/09/12 01:18:58;;;;;;;6.43;3.13;;;;;;;14.15;100.00;100355.00;5019053;28;20458;-49
2022/09/12 01:21:58;;;;;;;2.30;2.07;;;;;;;14.00;100.00;100347.66;5014659;28;20523;-49
2022/09/12 01:24:33;;;;;;;3.00;2.30;;;;;;;14.08;100.00;100356.19;4980959;28;20460;-49
2022/09/12 01:27:27;;;;;;;5.53;2.67;;;;;;;14.05;100.00;100350.97;5021126;28;20452;-49
2022/09/12 01:30:04;;;;;;;2.17;2.07;;;;;;;14.12;100.00;100344.47;5023123;28;20900;-49
2022/09/12 01:32:42;;;;;;;2.80;2.60;;;;;;;13.97;100.00;100342.41;5023663;28;20451;-49
2022/09/12 01:35:18;;;;;;;7.33;2.87;;;;;;;13.97;100.00;100342.41;5019540;28;20452;-49
2022/09/12 01:38:03;;;;;;;3.33;3.13;;;;;;;14.04;100.00;100342.09;5025187;28;20556;-49
2022/09/12 01:40:48;;;;;;;3.93;3.70;;;;;;;14.07;100.00;100331.25;5023038;28;20499;-49
2022/09/12 01:43:30;;;;;;;5.50;4.60;;;;;;;13.92;100.00;100340.78;5021419;28;20533;-49
2022/09/12 01:46:19;;;;;;;6.37;3.80;;;;;;;14.02;100.00;100333.28;5023304;28;20449;-49
2022/09/12 01:48:54;;;;;;;3.53;3.33;;;;;;;13.94;100.00;100338.94;5023545;28;20447;-50
2022/09/12 01:51:50;;;;;;;2.73;1.67;;;;;;;13.88;100.00;100341.00;5018786;28;20540;-50
2022/09/12 01:54:28;;;;;;;15.70;2.97;;;;;;;13.77;100.00;100337.88;5016650;28;21002;-49
2022/09/12 01:56:59;;;;;;;3.20;3.00;;;;;;;13.81;100.00;100332.34;5016143;28;20483;-49
2022/09/12 01:59:32;;;;;;;2.80;2.63;;;;;;;13.70;100.00;100333.72;5020669;28;20918;-49
2022/09/12 02:02:06;;;;;;;2.80;2.60;;;;;;;13.70;100.00;100336.38;5022946;28;21027;-49
2022/09/12 02:04:45;;;;;;;2.70;2.50;;;;;;;13.68;100.00;100331.09;5020262;28;20454;-49
2022/09/12 02:07:20;;;;;;;2.97;2.77;;;;;;;13.78;100.00;100334.28;5016431;28;20451;-49
2022/09/12 02:09:53;;;;;;;3.33;3.13;;;;;;;13.58;100.00;100327.97;5016012;28;20463;-48
2022/09/12 02:12:26;;;;;;;3.70;3.00;;;;;;;13.55;100.00;100319.19;5021542;28;20449;-49
2022/09/12 02:15:00;;;;;;;5.23;4.83;;;;;;;13.56;100.00;100326.25;5022953;28;20506;-49
2022/09/12 02:17:28;;;;;;;4.40;3.87;;;;;;;13.47;100.00;100324.84;5019211;28;20948;-50
2022/09/12 02:20:01;;;;;;;3.50;3.30;;;;;;;13.61;100.00;100325.16;5015773;28;20499;-49
2022/09/12 02:22:30;;;;;;;5.20;3.27;;;;;;;13.67;100.00;100328.50;5013942;28;20452;-49
2022/09/12 02:24:59;;;;;;;5.90;3.23;;;;;;;13.53;100.00;100327.25;5022742;28;20996;-49
2022/09/12 02:27:36;;;;;;;4.17;3.87;;;;;;;13.49;100.00;100324.78;5013044;28;20461;-48
2022/09/12 02:30:05;;;;;;;8.07;3.47;;;;;;;13.43;100.00;100325.00;5022692;28;20471;-49
2022/09/12 02:32:44;;;;;;;3.90;3.60;;;;;;;13.34;100.00;100321.78;5022664;28;20456;-49
2022/09/12 02:35:21;;;;;;;6.97;3.67;;;;;;;13.38;100.00;100316.31;5003184;28;20507;-49
2022/09/12 02:37:57;;;;;;;4.90;4.40;;;;;;;13.40;100.00;100322.47;5022203;28;21008;-49
2022/09/12 02:40:24;;;;;;;2.80;2.60;;;;;;;13.41;100.00;100313.53;5019997;28;20911;-49
2022/09/12 02:42:51;;;;;;;3.43;3.07;;;;;;;13.36;100.00;100315.53;5015474;28;20451;-49
2022/09/12 02:45:17;;;;;;;7.50;3.40;;;;;;;13.41;100.00;100310.84;5017722;28;20513;-50
2022/09/12 02:47:57;;;;;;;4.07;3.70;;;;;;;13.36;100.00;100315.53;5022033;28;20456;-49
2022/09/12 02:50:24;;;;;;;5.30;3.87;;;;;;;13.32;100.00;100307.63;5022819;28;20487;-49
2022/09/12 02:52:53;;;;;;;4.43;4.07;;;;;;;13.36;100.00;100308.38;5002815;28;20462;-48
2022/09/12 02:55:20;;;;;;;3.13;2.83;;;;;;;13.40;100.00;100303.78;5015786;28;20826;-49
2022/09/12 02:57:46;;;;;;;11.17;4.60;;;;;;;13.40;100.00;100309.13;5021612;28;20456;-49
2022/09/12 03:00:13;;;;;;;5.07;3.90;;;;;;;13.39;100.00;100313.59;5021902;28;20549;-47
2022/09/12 03:03:03;;;;;;;6.50;3.60;;;;;;;13.33;100.00;100309.38;5016396;28;20455;-48
2022/09/12 03:05:50;;;;;;;4.17;3.13;;;;;;;13.37;100.00;100307.44;5015334;28;20448;-48
2022/09/12 03:08:36;;;;;;;10.17;3.90;;;;;;;13.25;100.00;100306.13;5015966;28;20451;-48
2022/09/12 03:11:09;;;;;;;4.60;2.43;;;;;;;13.21;100.00;100311.66;5014320;28;20529;-49
2022/09/12 03:13:35;;;;;;;3.47;3.13;;;;;;;13.26;100.00;100318.53;5019193;28;20509;-49
2022/09/12 03:16:32;;;;;;;3.87;3.57;;;;;;;13.10;100.00;100311.16;5022359;28;21212;-48
2022/09/12 03:19:14;;;;;;;3.30;2.50;;;;;;;13.21;100.00;100314.31;5021185;28;20451;-51
2022/09/12 03:22:07;;;;;;;2.80;2.60;;;;;;;13.11;100.00;100307.56;5015752;28;20500;-49
2022/09/12 03:24:44;;;;;;;4.00;3.67;;;;;;;12.93;100.00;100306.47;5025343;28;20459;-49
2022/09/12 03:27:21;;;;;;;4.73;3.87;;;;;;;12.99;100.00;100306.22;5016806;28;20490;-48
2022/09/12 03:29:49;;;;;;;4.20;2.40;;;;;;;13.09;100.00;100310.28;5025923;28;20464;-48
2022/09/12 03:32:16;;;;;;;2.57;2.37;;;;;;;13.12;100.00;100309.31;5024686;28;20455;-48
2022/09/12 03:34:42;;;;;;;3.13;2.80;;;;;;;13.01;100.00;100312.38;5019385;28;20478;-50
2022/09/12 03:37:08;;;;;;;3.27;3.07;;;;;;;13.02;100.00;100311.47;5031403;28;20519;-49
2022/09/12 03:39:35;;;;;;;3.53;3.33;;;;;;;13.04;100.00;100314.94;5018678;28;20452;-49
2022/09/12 03:42:01;;;;;;;3.07;2.87;;;;;;;13.09;100.00;100307.63;5019875;28;20456;-48
2022/09/12 03:44:28;;;;;;;3.67;1.90;;;;;;;12.91;100.00;100311.88;5025554;28;20452;-49
2022/09/12 03:46:54;;;;;;;2.53;2.33;;;;;;;12.77;100.00;100310.66;5024534;28;20524;-48
2022/09/12 03:49:20;;;;;;;3.67;2.87;;;;;;;12.91;100.00;100306.53;5018604;28;20451;-48
2022/09/12 03:51:47;;;;;;;3.67;3.40;;;;;;;12.79;100.00;100309.66;5019189;28;20514;-48
2022/09/12 03:54:13;;;;;;;3.90;3.60;;;;;;;12.88;100.00;100305.75;5025360;28;20842;-48
2022/09/12 03:56:40;;;;;;;2.40;2.20;;;;;;;12.82;100.00;100314.88;5024711;28;20501;-49
2022/09/12 03:59:07;;;;;;;7.13;2.40;;;;;;;12.72;100.00;100301.00;5018478;28;20451;-49
2022/09/12 04:01:33;;;;;;;6.87;3.47;;;;;;;12.72;100.00;100310.81;5018292;28;20500;-49
2022/09/12 04:04:00;;;;;;;3.87;3.27;;;;;;;12.64;100.00;100311.09;5025126;28;20459;-48
2022/09/12 04:06:26;;;;;;;4.70;4.30;;;;;;;12.68;100.00;100309.19;5018007;28;20452;-49
2022/09/12 04:08:54;;;;;;;3.47;2.77;;;;;;;12.79;100.00;100314.13;5025115;28;20452;-48
2022/09/12 04:11:21;;;;;;;3.50;3.30;;;;;;;12.75;100.00;100313.38;5025076;28;20467;-49
2022/09/12 04:13:47;;;;;;;2.67;2.47;;;;;;;12.71;100.00;100307.28;5018936;28;20456;-47
2022/09/12 04:16:15;;;;;;;4.03;3.13;;;;;;;12.69;100.00;100313.59;5018026;28;20448;-50
2022/09/12 04:18:42;;;;;;;2.43;2.23;;;;;;;12.68;100.00;100314.53;5024172;28;20484;-47
2022/09/12 04:21:14;;;;;;;6.17;3.30;;;;;;;12.93;100.00;100310.00;5021443;28;20554;-47
2022/09/12 04:23:41;;;;;;;2.53;2.43;;;;;;;12.75;100.00;100308.03;5019652;28;20448;-49
2022/09/12 04:26:08;;;;;;;3.13;2.93;;;;;;;12.67;100.00;100318.13;5018020;28;20489;-49
2022/09/12 04:28:39;;;;;;;3.40;3.10;;;;;;;12.51;100.00;100312.47;5021965;28;20509;-48
2022/09/12 04:31:08;;;;;;;3.33;2.60;;;;;;;12.64;100.00;100310.22;5017760;28;21009;-49
2022/09/12 04:33:35;;;;;;;2.63;2.43;;;;;;;13.43;100.00;100311.66;5021327;28;21015;-49
2022/09/12 04:36:06;;;;;;;7.13;3.60;;;;;;;12.75;100.00;100316.03;5026836;28;20505;-49
2022/09/12 04:38:34;;;;;;;3.00;2.80;;;;;;;12.68;100.00;100327.84;5020908;28;20534;-47
2022/09/12 04:41:19;;;;;;;5.10;4.23;;;;;;;12.61;100.00;100321.88;5024567;28;20496;-48
2022/09/12 04:43:50;;;;;;;10.80;5.60;;;;;;;12.66;100.00;100319.91;5024304;28;20447;-49
2022/09/12 04:46:19;;;;;;;14.73;4.17;;;;;;;12.81;100.00;100330.94;5018872;28;20457;-48
2022/09/12 04:48:46;;;;;;;7.90;4.80;;;;;;;12.93;100.00;100323.34;5017565;28;20487;-48
2022/09/12 04:51:16;;;;;;;7.40;5.43;;;;;;;12.94;100.00;100317.09;5022064;28;20564;-48
2022/09/12 04:53:48;;;;;;;7.50;4.73;;;;;;;13.03;100.00;100311.41;5024225;28;20518;-48
2022/09/12 04:56:14;;;;;;;11.53;4.07;;;;;;;13.17;100.00;100310.00;5020653;28;20447;-49
2022/09/12 04:58:41;;;;;;;4.80;4.40;;;;;;;13.12;100.00;100304.81;4999539;28;20509;-48
2022/09/12 05:01:12;;;;;;;5.33;4.47;;;;;;;13.15;100.00;100311.84;5020919;28;20586;-48
2022/09/12 05:03:42;;;;;;;13.53;6.27;;;;;;;13.00;100.00;100308.84;5024586;28;20514;-48
2022/09/12 05:06:13;;;;;;;11.50;7.53;;;;;;;13.09;100.00;100310.28;5016370;28;20523;-48
2022/09/12 05:08:39;;;;;;;6.03;5.40;;;;;;;13.13;100.00;100308.38;5023819;28;20511;-48
2022/09/12 05:11:12;;;;;;;5.97;5.53;;;;;;;13.18;100.00;100315.31;5021769;28;21038;-49
2022/09/12 05:13:38;;;;;;;6.20;5.23;;;;;;;13.13;100.00;100311.91;5016946;28;20915;-49
2022/09/12 05:16:06;;;;;;;18.60;7.90;;;;;;;13.09;100.00;100314.75;5018002;28;20452;-47
2022/09/12 05:18:34;;;;;;;12.20;6.37;;;;;;;13.13;100.00;100311.91;5023572;28;20490;-48
2022/09/12 05:21:06;;;;;;;8.60;5.77;;;;;;;13.34;100.00;100313.78;5019651;28;20562;-48
2022/09/12 05:23:33;;;;;;;9.23;6.90;;;;;;;13.28;100.00;100314.00;5005101;28;20448;-49
2022/09/12 05:26:01;;;;;;;6.63;4.77;;;;;;;13.26;100.00;100312.34;5016605;28;20452;-48
2022/09/12 05:28:33;;;;;;;7.77;6.57;;;;;;;13.25;100.00;100316.81;5020465;28;20455;-48
2022/09/12 05:31:05;;;;;;;8.03;4.17;;;;;;;13.44;100.00;100314.28;5011011;28;20839;-48
2022/09/12 05:33:36;;;;;;;12.13;5.37;;;;;;;13.36;100.00;100318.19;5018667;28;20879;-49
2022/09/12 05:36:05;;;;;;;7.37;5.60;;;;;;;13.40;100.00;100320.66;5016650;28;20459;-49
2022/09/12 05:38:34;;;;;;;5.10;4.03;;;;;;;13.22;100.00;100310.72;5019453;28;20503;-49
2022/09/12 05:41:09;;;;;;;10.43;4.30;;;;;;;13.20;100.00;100309.91;5023228;28;21084;-49
2022/09/12 05:43:42;;;;;;;5.77;5.27;;;;;;;13.32;100.00;100310.31;5023053;28;20451;-49
2022/09/12 05:46:15;;;;;;;6.73;6.13;;;;;;;13.48;100.00;100304.34;5016457;28;20505;-50
2022/09/12 05:48:43;;;;;;;9.67;5.40;;;;;;;13.72;100.00;100307.84;5016456;28;20449;-49
2022/09/12 05:51:18;;;;;;;4.97;4.47;;;;;;;13.45;100.00;100292.00;5021683;28;20558;-49
2022/09/12 05:53:52;;;;;;;5.17;4.77;;;;;;;13.59;100.00;100294.13;5023196;28;20447;-48
2022/09/12 05:56:22;;;;;;;3.27;2.97;;;;;;;13.33;100.00;100293.34;5019873;28;20447;-48
2022/09/12 05:58:57;;;;;;;3.27;2.93;;;;;;;13.54;100.00;100298.75;5016212;28;20491;-49
2022/09/12 06:01:25;;;;;;;9.07;4.53;;;;;;;13.80;100.00;100311.03;5017481;28;20496;-49
2022/09/12 06:03:53;;;;;;;15.07;6.17;;;;;;;14.10;100.00;100311.56;5022729;28;20879;-49
2022/09/12 06:06:23;;;;;;;7.37;4.97;;;;;;;14.49;100.00;100319.69;5015789;28;20483;-49
2022/09/12 06:08:52;;;;;;;5.60;5.10;;;;;;;14.38;100.00;100325.47;5023226;28;20449;-49
2022/09/12 06:11:21;;;;;;;3.47;3.27;;;;;;;14.43;100.00;100323.47;5022781;28;20471;-48
2022/09/12 06:13:49;;;;;;;2.27;2.07;;;;;;;14.24;100.00;100322.53;5003723;28;20506;-49
2022/09/12 06:16:21;;;;;;;2.87;2.70;;;;;;;14.00;100.00;100320.91;5015713;28;20463;-49
2022/09/12 06:18:52;;;;;;;3.70;1.97;;;;;;;13.96;100.00;100338.00;5021306;28;20543;-49
2022/09/12 06:21:21;;;;;;;2.53;2.33;;;;;;;13.83;100.00;100329.59;5018813;28;20567;-48
2022/09/12 06:23:48;;;;;;;2.83;2.10;;;;;;;13.88;100.00;100328.50;5018499;28;20451;-48
2022/09/12 06:26:16;;;;;;;2.43;1.83;;;;;;;13.99;100.00;100327.19;5015692;28;20452;-49
2022/09/12 06:28:44;;;;;;;2.43;2.23;;;;;;;14.13;100.00;100325.69;5019558;28;20489;-48
2022/09/12 06:31:17;;;;;;;3.97;3.33;;;;;;;14.06;100.00;100332.19;5015822;28;20467;-49
2022/09/12 06:33:47;;;;;;;3.33;3.00;;;;;;;14.21;100.00;100330.69;5017995;28;20873;-49
2022/09/12 06:36:17;;;;;;;4.00;2.77;;;;;;;14.15;100.00;100333.63;5026426;28;20448;-48
2022/09/12 06:38:45;;;;;;;2.13;1.77;;;;;;;14.19;100.00;100338.75;5016985;28;20532;-50
2022/09/12 06:41:12;;;;;;;3.47;2.80;;;;;;;14.32;100.00;100343.59;5021628;28;20492;-49
2022/09/12 06:43:40;;;;;;;4.60;2.20;;;;;;;14.33;100.00;100338.19;5020917;28;20459;-49
2022/09/12 06:46:08;;;;;;;3.00;2.30;;;;;;;14.30;100.00;100334.78;5014969;28;20517;-49
2022/09/12 06:48:35;;;;;;;4.20;3.23;;;;;;;14.31;100.00;100329.34;5015733;28;20464;-49
2022/09/12 06:51:13;;;;;;;3.47;3.17;;;;;;;14.38;100.00;100333.47;5016208;28;20487;-49
2022/09/12 06:53:40;;;;;;;2.33;2.20;;;;;;;14.58;100.00;100329.97;5015130;28;20514;-49
2022/09/12 06:56:09;;;;;;;2.60;2.40;;;;;;;14.57;100.00;100332.72;5020594;28;20536;-49
2022/09/12 06:58:37;;;;;;;3.73;3.50;;;;;;;14.89;100.00;100326.78;5022128;28;20459;-49
2022/09/12 07:01:05;;;;;;;2.70;2.50;;;;;;;15.02;100.00;100319.06;5017945;28;20553;-48
2022/09/12 07:03:32;;;;;;;2.70;2.50;;;;;;;15.18;100.00;100325.44;5015208;28;20886;-48
2022/09/12 07:06:05;;;;;;;4.07;3.87;;;;;;;15.07;100.00;100315.22;5018790;28;20460;-49
2022/09/12 07:08:32;;;;;;;3.30;3.10;;;;;;;15.05;100.00;100318.91;5022332;28;20514;-48
2022/09/12 07:11:09;;;;;;;3.10;2.57;;;;;;;14.96;100.00;100324.72;5019584;28;20472;-49
2022/09/12 07:13:37;;;;;;;2.43;2.33;;;;;;;15.05;100.00;100327.81;5015051;28;20447;-48
2022/09/12 07:16:04;;;;;;;4.00;3.57;;;;;;;15.06;100.00;100329.56;5015836;28;20510;-48
2022/09/12 07:18:32;;;;;;;3.00;2.67;;;;;;;15.23;100.00;100333.28;5021745;28;20456;-49
2022/09/12 07:21:00;;;;;;;3.80;3.50;;;;;;;15.50;100.00;100331.97;5018314;28;20626;-48
2022/09/12 07:23:28;;;;;;;5.43;4.40;;;;;;;15.52;100.00;100324.72;5014790;28;20459;-48
2022/09/12 07:25:57;;;;;;;5.37;3.40;;;;;;;15.86;100.00;100317.72;5015555;28;20452;-49
2022/09/12 07:28:28;;;;;;;3.70;3.50;;;;;;;15.82;100.00;100311.66;5018717;28;20451;-49
2022/09/12 07:30:55;;;;;;;4.30;3.90;;;;;;;15.78;100.00;100309.22;5014735;28;20499;-49
2022/09/12 07:33:28;;;;;;;5.87;4.83;;;;;;;16.00;100.00;100308.03;5021099;28;20460;-49
2022/09/12 07:36:00;;;;;;;4.53;3.43;;;;;;;16.05;100.00;100302.47;5021915;28;20453;-48
2022/09/12 07:38:26;;;;;;;7.10;5.00;;;;;;;15.93;100.00;100311.13;5019763;28;20460;-49
2022/09/12 07:40:52;;;;;;;35.97;3.90;;;;;;;15.91;100.00;100308.53;5021783;28;20541;-49
2022/09/12 07:43:19;;;;;;;4.43;4.03;;;;;;;16.29;100.00;100305.66;5017871;28;20785;-49
2022/09/12 07:45:45;;;;;;;14.03;5.70;;;;;;;17.04;100.00;100301.72;5015456;28;20449;-50
2022/09/12 07:48:12;;;;;;;5.33;4.73;;;;;;;16.69;100.00;100299.09;5019605;28;20457;-50
2022/09/12 07:50:39;;;;;;;6.50;6.00;;;;;;;16.65;100.00;100296.66;5021787;28;20537;-50
2022/09/12 07:53:10;;;;;;;5.87;4.83;;;;;;;16.81;100.00;100301.13;5018481;28;20447;-50
2022/09/12 07:55:36;;;;;;;5.33;4.13;;;;;;;16.63;100.00;100299.41;5015613;28;21010;-49
2022/09/12 07:58:03;;;;;;;5.43;4.00;;;;;;;16.83;100.00;100304.59;5022087;28;20459;-49
2022/09/12 08:00:34;;;;;;;8.53;5.77;;;;;;;17.12;100.00;100313.75;5024731;28;20827;-50
2022/09/12 08:03:06;;;;;;;9.57;5.93;;;;;;;17.47;100.00;100308.22;5023198;28;20931;-50
2022/09/12 08:05:32;;;;;;;12.03;6.97;;;;;;;17.63;100.00;100297.47;5018347;28;20448;-51
2022/09/12 08:07:58;;;;;;;6.87;6.13;;;;;;;17.55;100.00;100300.63;5023704;28;20517;-51
2022/09/12 08:10:25;;;;;;;8.80;4.60;;;;;;;17.99;100.00;100299.88;5018357;28;20483;-52
2022/09/12 08:12:51;;;;;;;6.60;4.80;;;;;;;17.70;100.00;100313.19;5019821;28;20945;-49
2022/09/12 08:15:19;;;;;;;16.33;5.73;;;;;;;17.65;100.00;100314.38;5025009;28;20452;-49
2022/09/12 08:17:45;;;;;;;12.53;4.10;;;;;;;17.71;100.00;100316.75;5023847;28;20452;-49
2022/09/12 08:20:12;;;;;;;4.10;3.80;;;;;;;18.18;100.00;100327.41;5000642;28;20992;-49
2022/09/12 08:22:39;;;;;;;10.43;4.30;;;;;;;18.30;100.00;100326.69;5015364;28;20515;-50
2022/09/12 08:25:07;;;;;;;5.43;5.03;;;;;;;18.32;100.00;100326.59;5024675;28;20559;-51
2022/09/12 08:27:33;;;;;;;6.17;4.90;;;;;;;18.37;100.00;100319.13;5015791;28;20867;-50
2022/09/12 08:30:00;;;;;;;4.67;3.70;;;;;;;18.32;100.00;100318.50;5024312;28;20908;-50
2022/09/12 08:32:26;;;;;;;10.53;7.00;;;;;;;18.43;100.00;100321.44;5024604;28;20456;-50
2022/09/12 08:34:53;;;;;;;5.13;4.73;;;;;;;18.53;100.00;100322.63;5018464;28;20445;-49
2022/09/12 08:37:19;;;;;;;7.03;4.73;;;;;;;18.26;100.00;100325.16;5029695;28;20455;-49
2022/09/12 08:39:46;;;;;;;6.53;5.93;;;;;;;18.28;100.00;100319.66;5018232;28;20813;-49
2022/09/12 08:42:30;;;;;;;10.13;6.83;;;;;;;18.61;100.00;100316.75;5017953;28;20496;-50
2022/09/12 08:45:19;;;;;;;6.57;6.00;;;;;;;18.49;100.00;100328.25;5021791;28;20452;-51
2022/09/12 08:47:47;;;;;;;4.67;4.37;;;;;;;18.95;100.00;100318.25;5007050;28;20449;-49
2022/09/12 08:50:20;;;;;;;10.57;5.40;;;;;;;18.84;100.00;100321.63;5024506;28;20490;-49
2022/09/12 08:52:57;;;;;;;7.90;6.83;;;;;;;18.67;100.00;100318.25;5006312;28;20447;-50
2022/09/12 08:55:26;;;;;;;5.37;5.00;;;;;;;18.81;100.00;100318.25;5017323;28;20456;-49
2022/09/12 08:57:53;;;;;;;6.20;5.70;;;;;;;18.82;99.96;100310.06;5021632;28;20453;-49
2022/09/12 09:00:20;;;;;;;5.90;5.30;;;;;;;19.29;99.72;100302.63;5023760;28;20480;-50
2022/09/12 09:03:19;;;;;;;7.90;6.30;;;;;;;19.08;99.59;100311.13;5019908;28;20498;-50
2022/09/12 09:06:05;;;;;;;6.27;5.47;;;;;;;19.47;98.34;100310.41;5002885;28;21018;-50
2022/09/12 09:08:42;;;;;;;10.73;5.70;;;;;;;19.77;97.71;100309.38;5022885;28;20449;-49
2022/09/12 09:11:49;;;;;;;9.80;5.70;;;;;;;19.88;97.54;100303.28;5021805;28;20475;-50
2022/09/12 09:14:47;;;;;;;5.10;4.77;;;;;;;20.10;97.54;100308.94;5011771;28;20788;-49
2022/09/12 09:17:37;;;;;;;6.43;5.90;;;;;;;20.06;96.45;100302.91;5006575;28;20853;-50
2022/09/12 09:20:29;;;;;;;7.07;6.37;;;;;;;20.19;95.55;100302.94;5016912;28;21046;-50
2022/09/12 09:22:58;;;;;;;6.70;5.30;;;;;;;20.67;94.02;100304.09;5013165;28;21020;-50
2022/09/12 09:25:56;;;;;;;10.37;6.87;;;;;;;20.68;94.14;100310.34;5021350;28;20855;-50
2022/09/12 09:28:32;;;;;;;8.70;4.73;;;;;;;20.98;92.88;100304.66;5021239;28;20426;-51
2022/09/12 09:30:59;;;;;;;6.27;5.77;;;;;;;20.93;92.57;100304.09;5016881;28;20476;-50
2022/09/12 09:33:32;;;;;;;5.50;4.97;;;;;;;20.91;93.74;100304.19;5021689;28;20436;-50
2022/09/12 09:36:05;;;;;;;6.70;6.17;;;;;;;21.55;90.68;100296.00;5024919;28;20522;-49
2022/09/12 09:38:47;;;;;;;8.10;6.70;;;;;;;20.99;93.03;100293.72;5019759;28;20431;-50
2022/09/12 09:41:32;;;;;;;7.33;6.37;;;;;;;20.79;93.66;100298.81;5023089;28;20475;-49
2022/09/12 09:43:59;;;;;;;5.80;4.80;;;;;;;20.62;94.29;100286.50;5023228;28;20502;-50
2022/09/12 09:46:26;;;;;;;9.93;5.10;;;;;;;20.65;93.85;100281.72;5018468;28;20434;-49
2022/09/12 09:48:54;;;;;;;10.27;4.87;;;;;;;20.83;93.79;100278.69;5016360;28;20536;-50
2022/09/12 09:51:27;;;;;;;6.93;5.23;;;;;;;21.44;92.13;100280.56;5020720;28;21053;-50
2022/09/12 09:54:00;;;;;;;5.60;5.17;;;;;;;21.53;89.85;100279.88;5023563;28;20520;-50
2022/09/12 09:56:32;;;;;;;11.50;6.33;;;;;;;21.59;90.44;100270.44;5020352;28;20472;-50
2022/09/12 09:59:07;;;;;;;6.37;5.83;;;;;;;21.25;89.52;100272.09;4998823;28;20502;-50
2022/09/12 10:01:34;;;;;;;6.97;6.37;;;;;;;21.46;90.04;100269.63;5017304;28;20474;-50
2022/09/12 10:04:00;;;;;;;12.20;6.07;;;;;;;21.22;90.08;100266.84;5022958;28;20914;-51
2022/09/12 10:06:33;;;;;;;6.90;6.37;;;;;;;21.37;90.15;100268.44;5015226;28;20489;-50
2022/09/12 10:09:07;;;;;;;7.17;4.97;;;;;;;21.83;88.44;100265.88;5004151;28;20563;-50
2022/09/12 10:11:35;;;;;;;5.07;4.60;;;;;;;21.81;88.29;100253.47;5015832;28;20472;-49
2022/09/12 10:14:03;;;;;;;7.37;5.47;;;;;;;22.22;86.48;100261.16;5021466;28;21006;-49
2022/09/12 10:16:47;;;;;;;7.03;4.63;;;;;;;22.12;85.60;100255.56;5023101;28;20449;-49
2022/09/12 10:19:32;;;;;;;7.33;4.53;;;;;;;22.68;84.30;100246.69;5019972;28;20451;-49
2022/09/12 10:21:59;;;;;;;10.00;3.53;;;;;;;22.53;84.61;100232.53;5017964;28;20462;-49
2022/09/12 10:24:31;;;;;;;11.80;5.20;;;;;;;22.67;84.93;100234.13;5023190;28;20455;-49
2022/09/12 10:27:14;;;;;;;3.90;3.53;;;;;;;22.62;82.24;100242.63;5013864;28;20456;-49
2022/09/12 10:29:47;;;;;;;4.83;4.40;;;;;;;22.87;79.87;100229.84;5022694;28;20463;-49
2022/09/12 10:32:34;;;;;;;6.57;4.53;;;;;;;22.54;83.35;100233.38;5020795;28;20444;-51
2022/09/12 10:35:17;;;;;;;3.97;3.73;;;;;;;22.67;81.75;100234.13;5005062;28;20505;-50
2022/09/12 10:37:57;;;;;;;6.47;6.07;;;;;;;22.62;81.48;100231.78;5024305;28;20927;-51
2022/09/12 10:40:31;;;;;;;3.10;2.90;;;;;;;23.14;81.99;100224.88;5021247;28;20442;-53
2022/09/12 10:42:59;;;;;;;4.17;3.77;;;;;;;22.99;80.14;100223.44;5015360;28;20485;-51
2022/09/12 10:45:36;;;;;;;4.13;3.40;;;;;;;23.10;79.66;100227.97;5015646;28;20427;-50
2022/09/12 10:48:28;;;;;;;4.80;4.20;;;;;;;23.12;77.61;100217.88;5021251;28;20444;-49
2022/09/12 10:51:00;;;;;;;4.43;3.03;;;;;;;23.14;78.45;100215.88;5022306;28;20482;-50
2022/09/12 10:53:30;;;;;;;6.33;3.30;;;;;;;22.91;77.38;100217.78;5021888;28;20429;-50
2022/09/12 10:56:08;;;;;;;4.10;3.90;;;;;;;22.87;78.69;100217.16;5003372;28;20832;-50
2022/09/12 10:58:59;;;;;;;3.17;2.93;;;;;;;22.67;79.14;100212.44;5015862;28;20500;-50
2022/09/12 11:01:31;;;;;;;4.00;3.80;;;;;;;22.99;79.57;100208.03;5017772;28;20530;-50
2022/09/12 11:04:06;;;;;;;2.33;2.20;;;;;;;23.23;77.92;100205.16;5022554;28;20480;-50
2022/09/12 11:06:45;;;;;;;3.30;2.20;;;;;;;23.27;77.12;100203.91;5014883;28;20996;-50
2022/09/12 11:09:20;;;;;;;3.03;2.43;;;;;;;23.34;74.50;100206.97;5020138;28;20452;-50
2022/09/12 11:12:12;;;;;;;3.10;2.87;;;;;;;23.23;75.57;100215.16;5022284;28;20452;-50
2022/09/12 11:14:44;;;;;;;2.80;2.60;;;;;;;23.33;75.26;100208.84;5022090;28;20473;-51
2022/09/12 11:17:40;;;;;;;2.07;1.97;;;;;;;23.77;73.54;100201.56;5003583;28;20865;-50
2022/09/12 11:20:12;;;;;;;2.57;2.47;;;;;;;23.53;71.40;100212.59;5015105;28;20967;-51
2022/09/12 11:22:45;;;;;;;4.00;3.70;;;;;;;23.82;73.67;100203.88;5012009;28;20488;-51
2022/09/12 11:25:27;;;;;;;3.03;2.83;;;;;;;24.08;74.37;100199.78;5003763;28;20479;-50
2022/09/12 11:28:18;;;;;;;2.73;2.53;;;;;;;24.17;72.32;100198.13;5015385;28;20498;-51
2022/09/12 11:31:05;;;;;;;17.23;2.83;;;;;;;23.83;71.06;100192.88;5016723;28;20442;-51
2022/09/12 11:33:37;;;;;;;3.10;2.80;;;;;;;23.70;70.00;100188.63;5021639;28;20548;-50
2022/09/12 11:36:20;;;;;;;3.10;2.90;;;;;;;23.59;71.14;100184.97;5020421;28;20447;-53
2022/09/12 11:38:57;;;;;;;2.57;2.37;;;;;;;23.84;68.82;100194.59;5021362;28;20452;-50
2022/09/12 11:41:37;;;;;;;3.83;2.63;;;;;;;23.99;70.42;100192.44;5020699;28;20528;-51
2022/09/12 11:44:30;;;;;;;2.37;2.17;;;;;;;24.18;70.40;100186.28;5019426;28;20527;-50